createdAt,value
2022-11-20T00:01:27.698Z,58.70
2022-11-20T00:03:56.577Z,58.91
2022-11-20T00:06:24.444Z,59.52
2022-11-20T00:08:51.873Z,59.76
2022-11-20T00:11:21.930Z,60.16
2022-11-20T00:13:52.955Z,59.85
2022-11-20T00:16:23.541Z,59.63
2022-11-20T00:18:51.033Z,59.98
2022-11-20T00:21:22.099Z,60.13
2022-11-20T00:23:50.512Z,59.56
2022-11-20T00:26:19.898Z,59.62
2022-11-20T00:28:53.276Z,59.27
2022-11-20T00:31:20.613Z,59.48
2022-11-20T00:33:47.757Z,59.81
2022-11-20T00:36:18.348Z,60.12
2022-11-20T00:38:46.052Z,59.86
2022-11-20T00:41:16.511Z,60.47
2022-11-20T00:43:43.970Z,61.09
2022-11-20T00:46:16.141Z,60.54
2022-11-20T00:48:43.357Z,60.35
2022-11-20T00:51:13.256Z,60.58
2022-11-20T00:53:39.764Z,61.25
2022-11-20T00:56:11.492Z,60.93
2022-11-20T00:58:41.681Z,60.64
2022-11-20T01:01:13.692Z,59.53
2022-11-20T01:03:44.796Z,59.82
2022-11-20T01:06:15.492Z,60.59
2022-11-20T01:08:42.803Z,60.52
2022-11-20T01:11:19.849Z,60.17
2022-11-20T01:13:48.944Z,60.34
2022-11-20T01:16:21.132Z,60.07
2022-11-20T01:18:51.636Z,60.37
2022-11-20T01:21:22.821Z,59.66
2022-11-20T01:23:50.704Z,59.26
2022-11-20T01:26:22.167Z,59.34
2022-11-20T01:28:49.832Z,59.69
2022-11-20T01:31:28.721Z,59.57
2022-11-20T01:33:59.152Z,60.22
2022-11-20T01:36:30.029Z,59.88
2022-11-20T01:39:00.664Z,60.46
2022-11-20T01:41:50.001Z,61.03
2022-11-20T01:44:21.743Z,62.07
2022-11-20T01:47:02.720Z,61.73
2022-11-20T01:49:43.033Z,61.77
2022-11-20T01:52:19.812Z,61.84
2022-11-20T01:54:55.692Z,61.74
2022-11-20T01:57:27.690Z,62.12
2022-11-20T02:00:05.020Z,62.33
2022-11-20T02:02:31.720Z,62.23
2022-11-20T02:05:10.273Z,61.31
2022-11-20T02:07:37.642Z,61.22
2022-11-20T02:10:04.622Z,61.61
2022-11-20T02:12:49.674Z,60.96
2022-11-20T02:15:16.280Z,60.62
2022-11-20T02:17:42.777Z,60.59
2022-11-20T02:20:10.273Z,60.85
2022-11-20T02:22:54.813Z,60.79
2022-11-20T02:25:22.738Z,60.72
2022-11-20T02:27:49.538Z,60.59
2022-11-20T02:30:16.079Z,60.72
2022-11-20T02:32:42.719Z,60.47
2022-11-20T02:35:19.724Z,60.66
2022-11-20T02:37:51.760Z,61.00
2022-11-20T02:40:18.387Z,60.17
2022-11-20T02:42:44.891Z,60.25
2022-11-20T02:45:12.331Z,59.66
2022-11-20T02:47:38.835Z,60.03
2022-11-20T02:50:07.311Z,60.44
2022-11-20T02:52:33.833Z,60.62
2022-11-20T02:55:00.477Z,61.36
2022-11-20T02:57:27.024Z,61.40
2022-11-20T02:59:53.511Z,61.24
2022-11-20T03:02:20.199Z,61.21
2022-11-20T03:04:46.721Z,60.73
2022-11-20T03:07:13.341Z,61.04
2022-11-20T03:09:39.786Z,61.28
2022-11-20T03:12:06.530Z,60.67
2022-11-20T03:14:33.033Z,60.88
2022-11-20T03:16:59.559Z,60.40
2022-11-20T03:19:26.004Z,59.95
2022-11-20T03:21:52.452Z,59.54
2022-11-20T03:24:19.029Z,59.75
2022-11-20T03:26:45.493Z,59.43
2022-11-20T03:29:12.118Z,58.88
2022-11-20T03:31:41.403Z,58.77
2022-11-20T03:34:11.592Z,59.80
2022-11-20T03:36:43.484Z,60.32
2022-11-20T03:39:10.650Z,60.61
2022-11-20T03:41:40.581Z,61.16
2022-11-20T03:44:10.977Z,61.06
2022-11-20T03:46:38.417Z,60.79
2022-11-20T03:49:05.520Z,60.87
2022-11-20T03:51:35.738Z,61.92
2022-11-20T03:54:08.466Z,62.24
2022-11-20T03:56:38.788Z,62.15
2022-11-20T03:59:06.063Z,61.84
2022-11-20T04:01:36.653Z,61.47
2022-11-20T04:04:04.300Z,61.92
2022-11-20T04:06:35.999Z,62.06
2022-11-20T04:09:03.222Z,62.06
2022-11-20T04:11:36.571Z,61.51
2022-11-20T04:14:06.721Z,61.50
2022-11-20T04:16:36.850Z,61.41
2022-11-20T04:19:07.499Z,62.11
2022-11-20T04:21:34.169Z,62.03
2022-11-20T04:24:00.684Z,61.84
2022-11-20T04:26:29.953Z,62.13
2022-11-20T04:28:58.326Z,62.25
2022-11-20T04:31:31.651Z,62.57
2022-11-20T04:34:07.081Z,62.46
2022-11-20T04:36:34.886Z,62.34
2022-11-20T04:39:06.737Z,61.86
2022-11-20T04:41:37.155Z,60.95
2022-11-20T04:44:06.588Z,61.31
2022-11-20T04:46:40.365Z,61.28
2022-11-20T04:49:08.042Z,61.49
2022-11-20T04:51:35.779Z,60.51
2022-11-20T04:54:02.592Z,60.67
2022-11-20T04:56:29.138Z,60.44
2022-11-20T04:58:55.623Z,60.98
2022-11-20T05:01:25.251Z,60.59
2022-11-20T05:03:52.320Z,60.62
2022-11-20T05:06:22.030Z,61.08
2022-11-20T05:08:48.819Z,61.85
2022-11-20T05:11:19.865Z,60.99
2022-11-20T05:13:47.099Z,60.88
2022-11-20T05:16:17.908Z,60.64
2022-11-20T05:18:44.831Z,61.25
2022-11-20T05:21:13.590Z,61.77
2022-11-20T05:23:40.830Z,62.17
2022-11-20T05:26:15.573Z,62.10
2022-11-20T05:28:42.113Z,62.50
2022-11-20T05:31:11.929Z,62.24
2022-11-20T05:33:41.823Z,62.49
2022-11-20T05:36:09.281Z,63.10
2022-11-20T05:38:36.076Z,63.01
2022-11-20T05:41:13.168Z,64.06
2022-11-20T05:43:42.529Z,64.06
2022-11-20T05:46:13.486Z,63.87
2022-11-20T05:48:42.383Z,63.56
2022-11-20T05:51:13.267Z,63.80
2022-11-20T05:53:45.174Z,62.97
2022-11-20T05:56:18.688Z,63.43
2022-11-20T05:58:46.654Z,62.88
2022-11-20T06:01:21.793Z,63.03
2022-11-20T06:03:51.299Z,63.00
2022-11-20T06:06:19.556Z,62.96
2022-11-20T06:08:47.132Z,62.63
2022-11-20T06:11:15.935Z,61.96
2022-11-20T06:13:43.086Z,61.53
2022-11-20T06:16:12.182Z,61.87
2022-11-20T06:18:39.814Z,61.44
2022-11-20T06:21:16.522Z,61.31
2022-11-20T06:23:43.924Z,61.57
2022-11-20T06:26:22.149Z,61.52
2022-11-20T06:28:49.181Z,61.82
2022-11-20T06:31:18.594Z,62.21
2022-11-20T06:33:46.109Z,62.32
2022-11-20T06:36:16.206Z,62.44
2022-11-20T06:38:43.181Z,61.73
2022-11-20T06:41:17.840Z,61.45
2022-11-20T06:43:44.568Z,61.43
2022-11-20T06:46:13.800Z,61.23
2022-11-20T06:48:41.199Z,61.04
2022-11-20T06:51:09.298Z,61.54
2022-11-20T06:53:36.796Z,60.86
2022-11-20T06:56:04.079Z,61.33
2022-11-20T06:58:33.854Z,61.52
2022-11-20T07:01:06.939Z,62.47
2022-11-20T07:03:33.538Z,62.08
2022-11-20T07:06:02.158Z,61.96
2022-11-20T07:08:29.537Z,61.67
2022-11-20T07:11:02.291Z,61.79
2022-11-20T07:13:30.104Z,62.69
2022-11-20T07:16:05.582Z,62.05
2022-11-20T07:18:32.196Z,63.39
2022-11-20T07:21:08.365Z,64.21
2022-11-20T07:23:35.356Z,64.70
2022-11-20T07:26:10.939Z,64.44
2022-11-20T07:28:38.534Z,65.06
2022-11-20T07:31:05.891Z,65.26
2022-11-20T07:33:32.561Z,65.26
2022-11-20T07:36:02.946Z,65.57
2022-11-20T07:38:29.901Z,66.32
2022-11-20T07:40:58.672Z,65.83
2022-11-20T07:43:26.115Z,65.51
2022-11-20T07:45:52.633Z,65.51
2022-11-20T07:48:19.074Z,65.40
2022-11-20T07:50:45.592Z,65.60
2022-11-20T07:53:13.645Z,65.28
2022-11-20T07:55:40.480Z,64.65
2022-11-20T07:58:07.007Z,65.19
2022-11-20T08:00:33.561Z,65.60
2022-11-20T08:03:00.062Z,65.58
2022-11-20T08:05:26.583Z,64.84
2022-11-20T08:07:53.018Z,64.57
2022-11-20T08:10:19.648Z,64.63
2022-11-20T08:13:10.690Z,64.01
2022-11-20T08:15:39.836Z,63.52
2022-11-20T08:18:30.680Z,64.18
2022-11-20T08:20:58.540Z,64.53
2022-11-20T08:23:25.162Z,63.96
2022-11-20T08:25:52.139Z,64.37
2022-11-20T08:28:21.876Z,65.06
2022-11-20T08:30:50.715Z,64.19
2022-11-20T08:33:18.244Z,64.67
2022-11-20T08:35:44.842Z,64.29
2022-11-20T08:38:11.379Z,64.57
2022-11-20T08:40:37.839Z,64.37
2022-11-20T08:43:05.179Z,64.36
2022-11-20T08:45:34.553Z,63.79
2022-11-20T08:48:05.392Z,63.74
2022-11-20T08:50:33.794Z,63.90
2022-11-20T08:53:07.276Z,63.48
2022-11-20T08:55:36.396Z,63.51
2022-11-20T08:58:06.573Z,64.14
2022-11-20T09:00:34.951Z,64.55
2022-11-20T09:03:02.686Z,64.35
2022-11-20T09:05:30.028Z,64.29
2022-11-20T09:08:00.438Z,63.88
2022-11-20T09:10:28.275Z,63.16
2022-11-20T09:12:58.562Z,63.75
2022-11-20T09:15:27.041Z,63.66
2022-11-20T09:17:59.319Z,63.02
2022-11-20T09:20:27.753Z,64.44
2022-11-20T09:22:54.256Z,64.36
2022-11-20T09:25:20.914Z,64.05
2022-11-20T09:27:47.509Z,63.85
2022-11-20T09:30:15.768Z,64.03
2022-11-20T09:32:43.736Z,64.00
2022-11-20T09:35:11.326Z,64.03
2022-11-20T09:37:37.887Z,63.97
2022-11-20T09:40:05.091Z,63.93
2022-11-20T09:43:13.282Z,63.22
2022-11-20T09:46:30.040Z,63.16
2022-11-20T09:49:19.095Z,63.79
2022-11-20T09:52:28.924Z,63.21
2022-11-20T09:54:56.094Z,63.25
2022-11-20T09:57:35.578Z,63.20
2022-11-20T10:00:06.518Z,63.44
2022-11-20T10:03:12.744Z,60.90
2022-11-20T10:05:47.337Z,63.95
2022-11-20T10:08:31.447Z,63.06
2022-11-20T10:11:31.341Z,62.74
2022-11-20T10:14:27.171Z,61.88
2022-11-20T10:17:33.732Z,61.38
2022-11-20T10:20:25.245Z,61.75
2022-11-20T10:23:30.763Z,61.89
2022-11-20T10:26:19.388Z,61.36
2022-11-20T10:29:12.476Z,61.45
2022-11-20T10:31:46.858Z,60.48
2022-11-20T10:34:27.443Z,61.40
2022-11-20T10:37:04.520Z,62.20
2022-11-20T10:40:18.568Z,61.57
2022-11-20T10:42:57.188Z,62.21
2022-11-20T10:45:26.798Z,61.53
2022-11-20T10:48:08.151Z,61.68
2022-11-20T10:50:41.149Z,61.76
2022-11-20T10:53:31.636Z,61.27
2022-11-20T10:56:21.231Z,61.66
2022-11-20T10:59:36.272Z,62.88
2022-11-20T11:02:03.530Z,62.99
2022-11-20T11:04:47.790Z,62.59
2022-11-20T11:07:28.711Z,62.29
2022-11-20T11:09:57.426Z,61.65
2022-11-20T11:12:28.811Z,61.75
2022-11-20T11:14:58.513Z,61.60
2022-11-20T11:17:32.867Z,61.21
2022-11-20T11:20:22.090Z,60.53
2022-11-20T11:22:51.491Z,60.90
2022-11-20T11:25:29.910Z,60.77
2022-11-20T11:28:01.179Z,61.12
2022-11-20T11:30:31.193Z,61.01
2022-11-20T11:33:11.916Z,60.72
2022-11-20T11:35:54.833Z,59.71
2022-11-20T11:38:29.573Z,59.88
2022-11-20T11:40:58.378Z,60.15
2022-11-20T11:43:48.081Z,59.66
2022-11-20T11:46:30.012Z,59.79
2022-11-20T11:49:18.080Z,60.48
2022-11-20T11:52:06.242Z,60.10
2022-11-20T11:54:58.001Z,60.20
2022-11-20T11:57:42.537Z,60.59
2022-11-20T12:00:17.702Z,60.69
2022-11-20T12:02:47.287Z,61.28
2022-11-20T12:05:24.426Z,60.69
2022-11-20T12:08:12.403Z,60.98
2022-11-20T12:11:02.887Z,61.65
2022-11-20T12:13:35.412Z,61.82
2022-11-20T12:16:04.960Z,61.36
2022-11-20T12:18:32.412Z,61.72
2022-11-20T12:22:10.995Z,62.04
2022-11-20T12:25:08.389Z,61.87
2022-11-20T12:28:08.703Z,62.51
2022-11-20T12:30:50.303Z,63.23
2022-11-20T12:33:55.828Z,62.97
2022-11-20T12:36:57.544Z,63.38
2022-11-20T12:39:36.461Z,62.79
2022-11-20T12:42:42.886Z,62.45
2022-11-20T12:45:55.378Z,62.15
2022-11-20T12:48:56.376Z,61.92
2022-11-20T12:52:01.353Z,61.49
2022-11-20T12:55:00.373Z,61.04
2022-11-20T12:57:50.343Z,60.78
2022-11-20T13:00:22.822Z,60.86
2022-11-20T13:03:22.954Z,60.42
2022-11-20T13:05:58.542Z,61.77
2022-11-20T13:08:35.138Z,61.60
2022-11-20T13:11:08.281Z,62.34
2022-11-20T13:14:07.037Z,62.63
2022-11-20T13:16:39.536Z,61.97
2022-11-20T13:19:13.080Z,61.83
2022-11-20T13:21:57.524Z,61.95
2022-11-20T13:24:27.651Z,62.67
2022-11-20T13:27:09.403Z,62.07
2022-11-20T13:29:39.045Z,61.45
2022-11-20T13:32:16.893Z,62.23
2022-11-20T13:34:56.745Z,62.05
2022-11-20T13:37:37.723Z,62.49
2022-11-20T13:40:11.204Z,62.40
2022-11-20T13:42:45.793Z,61.57
2022-11-20T13:45:31.586Z,62.00
2022-11-20T13:48:04.095Z,62.46
2022-11-20T13:51:04.335Z,63.06
2022-11-20T13:54:07.744Z,62.81
2022-11-20T13:57:22.911Z,62.64
2022-11-20T14:00:13.116Z,62.34
2022-11-20T14:02:41.177Z,62.13
2022-11-20T14:05:23.892Z,61.72
2022-11-20T14:07:53.721Z,61.62
2022-11-20T14:10:31.638Z,61.82
2022-11-20T14:12:59.292Z,62.39
2022-11-20T14:15:35.166Z,63.02
2022-11-20T14:18:15.549Z,63.54
2022-11-20T14:20:44.127Z,63.28
2022-11-20T14:23:11.856Z,63.32
2022-11-20T14:25:43.903Z,62.82
2022-11-20T14:28:31.640Z,62.68
2022-11-20T14:30:58.809Z,62.58
2022-11-20T14:33:28.565Z,62.92
2022-11-20T14:35:58.490Z,62.79
2022-11-20T14:38:32.190Z,62.91
2022-11-20T14:41:21.064Z,63.55
2022-11-20T14:44:02.894Z,64.12
2022-11-20T14:46:33.165Z,63.93
2022-11-20T14:49:04.077Z,63.90
2022-11-20T14:51:44.150Z,63.95
2022-11-20T14:54:26.485Z,64.08
2022-11-20T14:57:04.796Z,64.73
2022-11-20T14:59:35.946Z,64.18
2022-11-20T15:02:07.507Z,63.69
2022-11-20T15:04:34.056Z,63.48
2022-11-20T15:07:01.820Z,63.09
2022-11-20T15:09:28.373Z,63.40
2022-11-20T15:12:04.801Z,62.99
2022-11-20T15:14:33.546Z,62.79
2022-11-20T15:17:00.461Z,63.24
2022-11-20T15:19:27.906Z,63.42
2022-11-20T15:21:54.448Z,63.85
2022-11-20T15:24:22.101Z,63.63
2022-11-20T15:26:48.880Z,63.42
2022-11-20T15:29:21.733Z,63.45
2022-11-20T15:31:48.204Z,63.62
2022-11-20T15:34:16.633Z,63.95
2022-11-20T15:36:44.873Z,64.01
2022-11-20T15:39:12.341Z,63.56
2022-11-20T15:41:39.891Z,63.93
2022-11-20T15:44:06.613Z,64.26
2022-11-20T15:46:39.463Z,64.86
2022-11-20T15:49:06.778Z,64.86
2022-11-20T15:51:37.220Z,64.31
2022-11-20T15:54:22.500Z,64.32
2022-11-20T15:56:53.165Z,64.48
2022-11-20T15:59:19.728Z,64.92
2022-11-20T16:01:46.587Z,65.67
2022-11-20T16:04:16.545Z,65.96
2022-11-20T16:06:43.696Z,66.07
2022-11-20T16:09:10.591Z,66.19
2022-11-20T16:11:37.534Z,65.81
2022-11-20T16:14:23.758Z,65.76
2022-11-20T16:16:50.987Z,65.46
2022-11-20T16:19:18.945Z,65.73
2022-11-20T16:21:45.432Z,66.15
2022-11-20T16:24:15.283Z,65.62
2022-11-20T16:26:42.002Z,65.61
2022-11-20T16:29:09.267Z,65.89
2022-11-20T16:31:35.936Z,66.25
2022-11-20T16:34:12.044Z,66.89
2022-11-20T16:36:44.483Z,66.68
2022-11-20T16:39:12.173Z,66.95
2022-11-20T16:41:39.289Z,66.92
2022-11-20T16:44:11.588Z,66.86
2022-11-20T16:46:38.812Z,67.03
2022-11-20T16:49:11.911Z,66.83
2022-11-20T16:51:38.361Z,66.98
2022-11-20T16:54:07.958Z,67.17
2022-11-20T16:56:35.146Z,67.72
2022-11-20T16:59:02.627Z,67.70
2022-11-20T17:01:30.352Z,67.70
2022-11-20T17:04:04.286Z,67.41
2022-11-20T17:06:36.691Z,67.56
2022-11-20T17:09:04.379Z,67.54
2022-11-20T17:11:31.021Z,67.65
2022-11-20T17:14:07.231Z,68.17
2022-11-20T17:16:36.273Z,67.88
2022-11-20T17:19:05.233Z,68.73
2022-11-20T17:21:36.009Z,69.03
2022-11-20T17:24:06.857Z,68.49
2022-11-20T17:26:35.076Z,69.29
2022-11-20T17:29:15.411Z,69.39
2022-11-20T17:31:43.323Z,69.48
2022-11-20T17:34:14.923Z,69.35
2022-11-20T17:36:45.441Z,69.11
2022-11-20T17:39:15.210Z,68.90
2022-11-20T17:41:41.871Z,69.37
2022-11-20T17:44:13.031Z,68.66
2022-11-20T17:46:39.820Z,69.06
2022-11-20T17:49:06.751Z,69.54
2022-11-20T17:51:37.772Z,69.72
2022-11-20T17:54:07.653Z,69.89
2022-11-20T17:56:54.275Z,69.70
2022-11-20T17:59:22.200Z,70.19
2022-11-20T18:01:49.202Z,70.06
2022-11-20T18:04:16.611Z,70.42
2022-11-20T18:06:44.074Z,69.52
2022-11-20T18:09:12.029Z,69.03
2022-11-20T18:11:41.170Z,69.89
2022-11-20T18:14:28.857Z,70.20
2022-11-20T18:16:59.575Z,70.61
2022-11-20T18:19:38.753Z,71.17
2022-11-20T18:22:08.862Z,70.83
2022-11-20T18:24:37.108Z,70.79
2022-11-20T18:27:05.624Z,70.32
2022-11-20T18:29:32.170Z,70.57
2022-11-20T18:32:00.480Z,70.57
2022-11-20T18:34:27.846Z,70.75
2022-11-20T18:36:54.312Z,70.66
2022-11-20T18:39:21.092Z,70.81
2022-11-20T18:42:06.463Z,70.54
2022-11-20T18:44:51.303Z,70.46
2022-11-20T18:47:25.758Z,70.84
2022-11-20T18:49:55.029Z,70.16
2022-11-20T18:52:29.332Z,69.95
2022-11-20T18:54:56.677Z,70.16
2022-11-20T18:57:26.985Z,70.12
2022-11-20T18:59:55.925Z,70.27
2022-11-20T19:02:23.246Z,70.20
2022-11-20T19:04:49.816Z,70.56
2022-11-20T19:07:17.467Z,70.35
2022-11-20T19:09:49.165Z,70.66
2022-11-20T19:12:16.562Z,70.36
2022-11-20T19:14:43.214Z,70.49
2022-11-20T19:17:11.300Z,69.91
2022-11-20T19:19:37.825Z,69.85
2022-11-20T19:22:04.491Z,70.94
2022-11-20T19:24:31.419Z,70.93
2022-11-20T19:26:58.103Z,70.77
2022-11-20T19:29:25.604Z,71.40
2022-11-20T19:31:52.649Z,71.36
2022-11-20T19:34:19.180Z,71.43
2022-11-20T19:36:46.493Z,71.66
2022-11-20T19:39:13.377Z,71.71
2022-11-20T19:41:41.364Z,71.15
2022-11-20T19:44:12.432Z,71.62
2022-11-20T19:46:40.819Z,70.82
2022-11-20T19:49:10.402Z,70.63
2022-11-20T19:51:43.482Z,70.81
2022-11-20T19:54:10.037Z,70.79
2022-11-20T19:56:36.618Z,70.84
2022-11-20T19:59:03.228Z,70.98
2022-11-20T20:01:31.361Z,70.82
2022-11-20T20:04:05.299Z,71.54
2022-11-20T20:06:34.840Z,71.46
2022-11-20T20:09:06.089Z,71.52
2022-11-20T20:11:35.196Z,71.59
2022-11-20T20:14:13.679Z,71.10
2022-11-20T20:16:41.576Z,71.37
2022-11-20T20:19:11.233Z,71.43
2022-11-20T20:21:37.726Z,71.74
2022-11-20T20:24:04.782Z,71.66
2022-11-20T20:26:33.159Z,71.89
2022-11-20T20:29:01.946Z,71.15
2022-11-20T20:31:31.888Z,70.94
2022-11-20T20:33:58.702Z,71.45
2022-11-20T20:36:26.077Z,70.82
2022-11-20T20:38:59.413Z,71.19
2022-11-20T20:41:26.235Z,71.81
2022-11-20T20:44:12.097Z,71.08
2022-11-20T20:46:39.965Z,71.65
2022-11-20T20:49:07.357Z,71.40
2022-11-20T20:51:34.521Z,71.39
2022-11-20T20:54:01.306Z,71.05
2022-11-20T20:56:27.825Z,72.04
2022-11-20T20:58:54.328Z,72.00
2022-11-20T21:01:22.672Z,71.46
2022-11-20T21:03:49.217Z,71.33
2022-11-20T21:06:15.900Z,71.51
2022-11-20T21:08:44.428Z,71.18
2022-11-20T21:11:14.793Z,71.27
2022-11-20T21:13:43.899Z,71.51
2022-11-20T21:16:12.136Z,71.41
2022-11-20T21:18:38.867Z,71.53
2022-11-20T21:21:30.928Z,71.83
2022-11-20T21:23:57.527Z,72.54
2022-11-20T21:26:24.231Z,72.00
2022-11-20T21:28:50.801Z,71.93
2022-11-20T21:31:28.375Z,71.40
2022-11-20T21:33:56.826Z,72.18
2022-11-20T21:36:27.736Z,72.20
2022-11-20T21:38:56.296Z,71.84
2022-11-20T21:41:24.812Z,71.86
2022-11-20T21:44:23.681Z,71.86
2022-11-20T21:46:42.880Z,72.38
2022-11-20T21:49:10.940Z,72.33
2022-11-20T21:51:37.661Z,72.30
2022-11-20T21:54:04.272Z,71.93
2022-11-20T21:56:30.791Z,72.14
2022-11-20T21:58:58.083Z,72.18
2022-11-20T22:01:30.466Z,72.65
2022-11-20T22:04:02.646Z,72.72
2022-11-20T22:06:34.321Z,72.40
2022-11-20T22:09:03.062Z,72.26
2022-11-20T22:11:30.242Z,73.22
2022-11-20T22:14:15.597Z,72.43
2022-11-20T22:16:42.174Z,73.44
2022-11-20T22:19:09.202Z,72.35
2022-11-20T22:21:38.401Z,72.61
2022-11-20T22:24:05.082Z,72.48
2022-11-20T22:26:39.984Z,72.28
2022-11-20T22:29:12.276Z,72.81
2022-11-20T22:31:38.729Z,72.71
2022-11-20T22:34:05.248Z,72.31
2022-11-20T22:36:32.516Z,71.96
2022-11-20T22:39:02.542Z,71.85
2022-11-20T22:41:30.041Z,72.53
2022-11-20T22:43:59.152Z,72.73
2022-11-20T22:46:28.683Z,72.71
2022-11-20T22:49:02.283Z,72.25
2022-11-20T22:51:32.707Z,73.10
2022-11-20T22:53:59.989Z,73.01
2022-11-20T22:56:26.609Z,73.08
2022-11-20T22:58:54.702Z,73.67
2022-11-20T23:01:31.349Z,73.78
2022-11-20T23:03:59.930Z,74.21
2022-11-20T23:06:27.878Z,72.77
2022-11-20T23:08:55.544Z,73.79
2022-11-20T23:11:28.492Z,74.05
2022-11-20T23:14:11.421Z,73.11
2022-11-20T23:16:37.951Z,73.26
2022-11-20T23:19:08.959Z,73.57
2022-11-20T23:21:38.097Z,73.45
2022-11-20T23:24:06.495Z,73.69
2022-11-20T23:26:36.445Z,73.59
2022-11-20T23:29:03.838Z,73.23
2022-11-20T23:31:33.336Z,71.74
2022-11-20T23:34:00.141Z,72.36
2022-11-20T23:36:27.092Z,72.28
2022-11-20T23:38:53.650Z,72.12
2022-11-20T23:41:20.118Z,71.98
2022-11-20T23:43:46.608Z,71.73
2022-11-20T23:46:16.492Z,71.37
2022-11-20T23:48:45.075Z,71.48
2022-11-20T23:51:12.110Z,71.58
2022-11-20T23:53:38.671Z,71.37
2022-11-20T23:56:06.149Z,71.38
2022-11-20T23:58:38.019Z,71.25
